Rhl Felicitas — A8SV2 — position and weather

sailwx.info

Track history (hours):
 
Tides and Currents Weather Stations Pressure Air Temp Water Temp Dewpoint Dewpoint Depression Visibility Wind Speed Wind Dir Waves Ship Positions

Rhl Felicitas

Last reported at 2014-Oct-17 07:26 UTC. Time now 2014-Oct-22 06:38 UTC.
Position N 23°29' E 117°41'.

Length 294 m; draft 8.8 m.

Type: Cargo ship. MMSI: 636091781.

Date/timePositionNaut miles runAvg speedWind from/ knotsBaromVisibWave heightAir tempDewpointWater temp
2014-Oct-17 07:26N 23°29' E 117°41'1111.4
2014-Oct-17 06:28N 23°34' E 117°52'1111.8
2014-Oct-17 05:30N 23°40' E 118°03'1212.1
2014-Oct-17 04:31N 23°47' E 118°14'1312.6
2014-Oct-17 03:28N 23°51' E 118°27'42911.9
2014-Oct-15 15:32N 29°51' E 122°50'3210.6
2014-Oct-15 12:29N 30°23' E 122°56'1111.9
2014-Oct-15 11:34N 30°27' E 122°44'1312.6
2014-Oct-15 10:33N 30°29' E 122°29'1211.8
2014-Oct-15 09:33N 30°33' E 122°16'13 0.4
2014-Oct-14 01:31N 30°38' E 122°03'7 7.7
2014-Oct-14 00:33N 30°34' E 122°10'9 9.4
2014-Oct-13 23:33N 30°33' E 122°21'9 8.7
2014-Oct-13 22:33N 30°32' E 122°31'9 8.6
2014-Oct-13 21:33N 30°33' E 122°40'1111.0
2014-Oct-13 20:31N 30°38' E 122°53'1212.7
2014-Oct-13 19:32N 30°50' E 122°54'  
Track history (hours):
 
Tides and Currents Weather Stations Pressure Air Temp Water Temp Dewpoint Dewpoint Depression Visibility Wind Speed Wind Dir Waves Ship Positions

Rhl Felicitas

Last reported at 2014-Oct-17 07:26 UTC. Time now 2014-Oct-22 06:38 UTC.
Position N 23°29' E 117°41'.

Length 294 m; draft 8.8 m.

Type: Cargo ship. MMSI: 636091781.

Date/timePositionNaut miles runAvg speedWind from/ knotsBaromVisibWave heightAir tempDewpointWater temp
2014-Oct-17 07:26N 23°29' E 117°41'1111.4
2014-Oct-17 06:28N 23°34' E 117°52'1111.8
2014-Oct-17 05:30N 23°40' E 118°03'1212.1
2014-Oct-17 04:31N 23°47' E 118°14'1312.6
2014-Oct-17 03:28N 23°51' E 118°27'42911.9
2014-Oct-15 15:32N 29°51' E 122°50'3210.6
2014-Oct-15 12:29N 30°23' E 122°56'1111.9
2014-Oct-15 11:34N 30°27' E 122°44'1312.6
2014-Oct-15 10:33N 30°29' E 122°29'1211.8
2014-Oct-15 09:33N 30°33' E 122°16'13 0.4
2014-Oct-14 01:31N 30°38' E 122°03'7 7.7
2014-Oct-14 00:33N 30°34' E 122°10'9 9.4
2014-Oct-13 23:33N 30°33' E 122°21'9 8.7
2014-Oct-13 22:33N 30°32' E 122°31'9 8.6
2014-Oct-13 21:33N 30°33' E 122°40'1111.0
2014-Oct-13 20:31N 30°38' E 122°53'1212.7
2014-Oct-13 19:32N 30°50' E 122°54'  

Dump ship's entire track history